createdAt,value
2022-10-04T00:00:36.480Z,4.73
2022-10-04T00:03:29.182Z,5.60
2022-10-04T00:05:59.290Z,5.43
2022-10-04T00:08:28.758Z,7.83
2022-10-04T00:11:26.718Z,3.83
2022-10-04T00:14:00.270Z,6.07
2022-10-04T00:16:31.705Z,4.97
2022-10-04T00:19:23.155Z,7.07
2022-10-04T00:21:53.802Z,5.43
2022-10-04T00:24:29.520Z,5.17
2022-10-04T00:27:23.372Z,5.10
2022-10-04T00:30:15.605Z,5.00
2022-10-04T00:32:42.410Z,6.07
2022-10-04T00:35:27.076Z,6.77
2022-10-04T00:38:16.040Z,5.50
2022-10-04T00:40:54.169Z,4.90
2022-10-04T00:43:37.803Z,10.07
2022-10-04T00:46:12.820Z,5.03
2022-10-04T00:48:48.496Z,3.53
2022-10-04T00:51:33.828Z,6.80
2022-10-04T00:54:13.453Z,3.43
2022-10-04T00:56:56.008Z,7.50
2022-10-04T00:59:35.729Z,5.07
2022-10-04T01:02:17.056Z,5.83
2022-10-04T01:04:53.701Z,3.43
2022-10-04T01:07:28.807Z,4.40
2022-10-04T01:10:18.547Z,6.57
2022-10-04T01:13:12.550Z,4.83
2022-10-04T01:15:48.599Z,4.13
2022-10-04T01:18:26.908Z,4.20
2022-10-04T01:21:03.556Z,6.50
2022-10-04T01:23:46.904Z,3.33
2022-10-04T01:26:34.905Z,3.67
2022-10-04T01:29:05.924Z,5.97
2022-10-04T01:31:35.927Z,3.93
2022-10-04T01:34:05.061Z,3.83
2022-10-04T01:36:33.809Z,3.60
2022-10-04T01:39:01.185Z,6.20
2022-10-04T01:41:52.932Z,4.33
2022-10-04T01:44:51.461Z,4.80
2022-10-04T01:47:28.357Z,4.57
2022-10-04T01:50:00.218Z,3.77
2022-10-04T01:52:43.532Z,3.10
2022-10-04T01:55:20.827Z,6.43
2022-10-04T01:57:56.301Z,3.37
2022-10-04T02:00:24.711Z,3.50
2022-10-04T02:03:13.238Z,4.10
2022-10-04T02:05:49.522Z,2.93
2022-10-04T02:08:18.428Z,3.90
2022-10-04T02:10:49.090Z,3.07
2022-10-04T02:13:19.017Z,4.50
2022-10-04T02:15:47.478Z,4.07
2022-10-04T02:18:17.636Z,29.37
2022-10-04T02:20:45.537Z,4.27
2022-10-04T02:23:12.953Z,6.20
2022-10-04T02:25:39.852Z,4.77
2022-10-04T02:28:10.841Z,3.40
2022-10-04T02:31:10.953Z,6.10
2022-10-04T02:33:47.237Z,5.63
2022-10-04T02:36:15.901Z,3.83
2022-10-04T02:38:53.769Z,3.97
2022-10-04T02:41:33.222Z,4.30
2022-10-04T02:44:24.062Z,5.60
2022-10-04T02:47:13.970Z,4.10
2022-10-04T02:49:48.385Z,3.80
2022-10-04T02:52:20.857Z,3.70
2022-10-04T02:55:04.521Z,5.27
2022-10-04T02:57:33.859Z,5.43
2022-10-04T03:00:12.784Z,3.73
2022-10-04T03:02:40.127Z,2.77
2022-10-04T03:05:10.414Z,3.37
2022-10-04T03:07:38.830Z,3.07
2022-10-04T03:10:12.541Z,4.43
2022-10-04T03:12:40.347Z,2.77
2022-10-04T03:15:10.789Z,3.13
2022-10-04T03:17:39.925Z,3.37
2022-10-04T03:20:09.139Z,2.70
2022-10-04T03:22:35.821Z,3.93
2022-10-04T03:25:02.805Z,2.77
2022-10-04T03:27:34.082Z,5.60
2022-10-04T03:30:01.869Z,2.77
2022-10-04T03:32:30.755Z,3.57
2022-10-04T03:35:05.340Z,3.77
2022-10-04T03:37:36.807Z,3.20
2022-10-04T03:40:08.309Z,4.63
2022-10-04T03:42:36.554Z,3.67
2022-10-04T03:45:08.029Z,2.50
2022-10-04T03:47:38.727Z,4.00
2022-10-04T03:50:12.841Z,3.13
2022-10-04T03:52:44.097Z,4.00
2022-10-04T03:55:14.152Z,6.63
2022-10-04T03:57:41.520Z,3.53
2022-10-04T04:00:08.843Z,4.17
2022-10-04T04:03:02.167Z,6.07
2022-10-04T04:05:40.198Z,5.53
2022-10-04T04:08:30.652Z,3.53
2022-10-04T04:11:00.916Z,3.40
2022-10-04T04:13:39.028Z,4.53
2022-10-04T04:16:06.619Z,3.37
2022-10-04T04:18:37.520Z,4.87
2022-10-04T04:21:06.154Z,2.93
2022-10-04T04:23:44.980Z,2.77
2022-10-04T04:26:32.786Z,3.40
2022-10-04T04:29:18.877Z,3.17
2022-10-04T04:31:51.295Z,3.67
2022-10-04T04:34:23.038Z,3.00
2022-10-04T04:36:49.753Z,2.73
2022-10-04T04:39:37.525Z,4.77
2022-10-04T04:42:11.820Z,4.10
2022-10-04T04:44:51.200Z,2.83
2022-10-04T04:47:38.234Z,3.83
2022-10-04T04:50:12.996Z,5.50
2022-10-04T04:52:41.161Z,2.80
2022-10-04T04:56:01.890Z,5.90
2022-10-04T04:58:43.324Z,5.33
2022-10-04T05:01:24.191Z,4.10
2022-10-04T05:04:09.244Z,2.40
2022-10-04T05:06:38.147Z,3.90
2022-10-04T05:09:05.933Z,3.07
2022-10-04T05:11:38.413Z,3.53
2022-10-04T05:14:12.013Z,3.10
2022-10-04T05:16:51.103Z,3.00
2022-10-04T05:19:35.740Z,2.20
2022-10-04T05:22:14.565Z,3.43
2022-10-04T05:24:45.016Z,4.47
2022-10-04T05:27:22.640Z,3.93
2022-10-04T05:30:30.877Z,2.50
2022-10-04T05:33:08.903Z,5.33
2022-10-04T05:36:01.461Z,3.57
2022-10-04T05:38:51.367Z,4.00
2022-10-04T05:41:33.579Z,3.73
2022-10-04T05:44:02.349Z,3.40
2022-10-04T05:46:31.842Z,4.73
2022-10-04T05:49:08.524Z,3.37
2022-10-04T05:51:48.315Z,4.40
2022-10-04T05:54:23.620Z,3.70
2022-10-04T05:57:12.908Z,5.33
2022-10-04T06:00:01.819Z,3.43
2022-10-04T06:03:07.255Z,2.90
2022-10-04T06:05:50.221Z,4.50
2022-10-04T06:08:36.729Z,3.70
2022-10-04T06:11:24.741Z,4.40
2022-10-04T06:14:21.201Z,6.37
2022-10-04T06:17:06.826Z,4.03
2022-10-04T06:20:06.089Z,3.77
2022-10-04T06:22:33.151Z,3.37
2022-10-04T06:25:11.822Z,4.73
2022-10-04T06:27:54.010Z,4.20
2022-10-04T06:30:21.338Z,5.03
2022-10-04T06:33:06.661Z,5.10
2022-10-04T06:36:11.028Z,4.97
2022-10-04T06:39:04.520Z,5.37
2022-10-04T06:42:09.376Z,5.37
2022-10-04T06:45:06.294Z,4.57
2022-10-04T06:48:10.775Z,7.13
2022-10-04T06:50:37.562Z,4.03
2022-10-04T06:53:06.972Z,3.77
2022-10-04T06:56:07.112Z,6.33
2022-10-04T06:58:53.162Z,3.73
2022-10-04T07:01:35.033Z,6.30
2022-10-04T07:04:24.111Z,3.67
2022-10-04T07:07:25.144Z,4.20
2022-10-04T07:09:57.694Z,4.20
2022-10-04T07:12:25.037Z,4.27
2022-10-04T07:14:56.273Z,5.23
2022-10-04T07:17:41.957Z,3.97
2022-10-04T07:20:22.705Z,6.90
2022-10-04T07:23:02.912Z,4.20
2022-10-04T07:25:37.630Z,5.20
2022-10-04T07:28:29.064Z,4.60
2022-10-04T07:31:01.806Z,5.37
2022-10-04T07:33:31.489Z,5.37
2022-10-04T07:36:09.702Z,5.30
2022-10-04T07:38:45.989Z,5.13
2022-10-04T07:41:26.312Z,5.83
2022-10-04T07:44:01.550Z,5.53
2022-10-04T07:46:37.645Z,4.50
2022-10-04T07:49:04.853Z,11.80
2022-10-04T07:51:48.714Z,6.37
2022-10-04T07:54:30.648Z,5.33
2022-10-04T07:57:08.036Z,5.27
2022-10-04T08:00:18.770Z,5.03
2022-10-04T08:03:09.141Z,6.27
2022-10-04T08:05:48.128Z,4.50
2022-10-04T08:08:52.743Z,6.20
2022-10-04T08:11:32.469Z,6.00
2022-10-04T08:14:17.863Z,8.50
2022-10-04T08:17:15.419Z,6.43
2022-10-04T08:19:57.410Z,6.73
2022-10-04T08:22:34.813Z,6.07
2022-10-04T08:25:23.165Z,7.27
2022-10-04T08:28:11.977Z,6.10
2022-10-04T08:31:17.681Z,7.53
2022-10-04T08:34:02.655Z,4.30
2022-10-04T08:37:04.955Z,7.37
2022-10-04T08:39:35.514Z,6.40
2022-10-04T08:42:04.921Z,6.63
2022-10-04T08:45:16.688Z,5.70
2022-10-04T08:48:14.357Z,6.07
2022-10-04T08:51:01.737Z,6.00
2022-10-04T08:54:18.949Z,7.57
2022-10-04T08:57:02.019Z,7.53
2022-10-04T09:00:06.181Z,9.07
2022-10-04T09:03:05.624Z,4.93
2022-10-04T09:05:47.912Z,5.65
2022-10-04T09:08:47.067Z,6.70
2022-10-04T09:11:41.316Z,6.28
2022-10-04T09:14:42.371Z,5.90
2022-10-04T09:17:23.182Z,6.00
2022-10-04T09:20:40.123Z,4.68
2022-10-04T09:23:32.025Z,5.00
2022-10-04T09:26:07.875Z,6.18
2022-10-04T09:29:08.872Z,5.45
2022-10-04T09:32:06.380Z,3.55
2022-10-04T09:35:07.015Z,3.90
2022-10-04T09:38:06.044Z,4.50
2022-10-04T09:40:47.800Z,4.68
2022-10-04T09:43:33.167Z,3.92
2022-10-04T09:46:44.801Z,4.32
2022-10-04T09:49:30.444Z,3.58
2022-10-04T09:52:23.458Z,4.97
2022-10-04T09:55:09.843Z,4.45
2022-10-04T09:58:07.516Z,4.55
2022-10-04T10:00:54.222Z,3.38
2022-10-04T10:03:23.994Z,2.90
2022-10-04T10:06:32.581Z,3.78
2022-10-04T10:09:14.273Z,3.25
2022-10-04T10:12:11.374Z,3.00
2022-10-04T10:14:53.173Z,2.28
2022-10-04T10:17:23.079Z,4.35
2022-10-04T10:20:10.304Z,2.80
2022-10-04T10:23:03.817Z,4.28
2022-10-04T10:25:49.360Z,2.35
2022-10-04T10:28:22.017Z,4.18
2022-10-04T10:30:54.781Z,2.83
2022-10-04T10:33:32.014Z,3.40
2022-10-04T10:36:34.689Z,5.78
2022-10-04T10:39:32.548Z,4.72
2022-10-04T10:42:19.777Z,2.72
2022-10-04T10:45:14.271Z,4.72
2022-10-04T10:47:49.897Z,4.93
2022-10-04T10:50:28.559Z,3.75
2022-10-04T10:53:14.235Z,2.58
2022-10-04T10:56:08.925Z,4.22
2022-10-04T10:59:17.181Z,2.67
2022-10-04T11:02:47.614Z,1.83
2022-10-04T11:05:26.881Z,3.63
2022-10-04T11:07:53.922Z,3.15
2022-10-04T11:10:51.251Z,2.72
2022-10-04T11:13:48.736Z,3.67
2022-10-04T11:16:48.952Z,2.40
2022-10-04T11:19:29.524Z,2.08
2022-10-04T11:22:06.885Z,4.03
2022-10-04T11:25:08.352Z,2.70
2022-10-04T11:28:04.272Z,2.05
2022-10-04T11:31:05.521Z,1.95
2022-10-04T11:33:55.888Z,2.92
2022-10-04T11:36:42.747Z,2.72
2022-10-04T11:39:24.943Z,2.47
2022-10-04T11:42:19.268Z,2.47
2022-10-04T11:44:56.845Z,4.20
2022-10-04T11:48:11.388Z,4.78
2022-10-04T11:51:28.949Z,3.13
2022-10-04T11:53:55.590Z,2.35
2022-10-04T11:56:49.548Z,2.97
2022-10-04T11:59:31.136Z,2.65
2022-10-04T12:02:26.934Z,2.65
2022-10-04T12:05:00.653Z,3.50
2022-10-04T12:08:01.803Z,3.28
2022-10-04T12:10:36.240Z,2.30
2022-10-04T12:13:23.225Z,1.85
2022-10-04T12:16:12.739Z,4.65
2022-10-04T12:18:48.692Z,2.70
2022-10-04T12:21:23.661Z,2.35
2022-10-04T12:24:17.388Z,2.15
2022-10-04T12:27:08.605Z,2.53
2022-10-04T12:29:45.209Z,3.25
2022-10-04T12:32:23.284Z,2.03
2022-10-04T12:35:14.749Z,2.55
2022-10-04T12:38:27.279Z,1.98
2022-10-04T12:41:07.333Z,2.75
2022-10-04T12:44:00.998Z,2.38
2022-10-04T12:46:41.846Z,2.45
2022-10-04T12:49:25.802Z,3.83
2022-10-04T12:52:16.122Z,2.58
2022-10-04T12:54:52.041Z,2.03
2022-10-04T12:57:50.660Z,3.63
2022-10-04T13:00:23.023Z,4.00
2022-10-04T13:03:19.012Z,3.00
2022-10-04T13:06:15.696Z,2.50
2022-10-04T13:08:57.654Z,3.67
2022-10-04T13:11:53.422Z,3.28
2022-10-04T13:14:47.329Z,2.60
2022-10-04T13:17:27.430Z,1.95
2022-10-04T13:20:15.271Z,3.40
2022-10-04T13:23:00.426Z,2.40
2022-10-04T13:25:52.164Z,2.45
2022-10-04T13:28:28.123Z,3.75
2022-10-04T13:31:24.450Z,3.88
2022-10-04T13:33:56.497Z,2.85
2022-10-04T13:37:00.867Z,3.97
2022-10-04T13:39:44.248Z,3.15
2022-10-04T13:42:15.146Z,3.75
2022-10-04T13:45:21.606Z,3.28
2022-10-04T13:48:21.691Z,2.55
2022-10-04T13:51:10.119Z,4.82
2022-10-04T13:54:19.774Z,2.85
2022-10-04T13:57:17.275Z,2.40
2022-10-04T14:00:10.472Z,2.10
2022-10-04T14:02:39.830Z,2.40
2022-10-04T14:05:38.100Z,4.22
2022-10-04T14:08:26.152Z,3.97
2022-10-04T14:11:16.895Z,4.30
2022-10-04T14:14:14.506Z,3.47
2022-10-04T14:16:44.396Z,4.45
2022-10-04T14:19:35.687Z,3.30
2022-10-04T14:22:34.849Z,3.17
2022-10-04T14:25:27.079Z,4.05
2022-10-04T14:28:42.542Z,2.40
2022-10-04T14:31:36.042Z,3.47
2022-10-04T14:34:44.789Z,2.88
2022-10-04T14:37:11.442Z,4.15
2022-10-04T14:39:54.602Z,6.63
2022-10-04T14:42:44.024Z,4.53
2022-10-04T14:45:18.457Z,3.92
2022-10-04T14:48:27.145Z,3.35
2022-10-04T14:51:37.770Z,1.95
2022-10-04T14:54:07.539Z,3.22
2022-10-04T14:57:01.083Z,2.50
2022-10-04T14:59:46.220Z,4.25
2022-10-04T15:02:31.727Z,4.43
2022-10-04T15:05:32.368Z,2.50
2022-10-04T15:08:25.027Z,3.35
2022-10-04T15:11:09.062Z,2.67
2022-10-04T15:13:48.729Z,2.75
2022-10-04T15:16:47.928Z,1.85
2022-10-04T15:19:21.576Z,2.50
2022-10-04T15:22:06.798Z,3.22
2022-10-04T15:24:42.672Z,2.47
2022-10-04T15:27:33.643Z,2.35
2022-10-04T15:30:30.691Z,2.78
2022-10-04T15:33:24.664Z,2.00
2022-10-04T15:35:57.488Z,2.15
2022-10-04T15:38:36.284Z,4.15
2022-10-04T15:41:25.530Z,2.83
2022-10-04T15:44:20.394Z,2.85
2022-10-04T15:46:52.943Z,5.22
2022-10-04T15:49:38.889Z,4.05
2022-10-04T15:52:37.876Z,3.92
2022-10-04T15:55:19.162Z,2.72
2022-10-04T15:57:45.789Z,2.03
2022-10-04T16:00:27.411Z,3.78
2022-10-04T16:03:26.940Z,5.28
2022-10-04T16:06:27.798Z,5.45
2022-10-04T16:09:14.043Z,4.63
2022-10-04T16:12:03.613Z,3.95
2022-10-04T16:14:33.515Z,3.38
2022-10-04T16:17:21.603Z,3.85
2022-10-04T16:20:12.684Z,3.92
2022-10-04T16:22:40.347Z,4.50
2022-10-04T16:25:25.654Z,6.57
2022-10-04T16:27:55.911Z,3.97
2022-10-04T16:31:01.064Z,4.37
2022-10-04T16:34:10.365Z,7.27
2022-10-04T16:36:59.617Z,7.17
2022-10-04T16:39:59.668Z,7.27
2022-10-04T16:42:45.486Z,13.10
2022-10-04T16:45:12.283Z,16.97
2022-10-04T16:47:56.006Z,14.27
2022-10-04T16:51:00.638Z,12.07
2022-10-04T16:53:59.514Z,9.53
2022-10-04T16:56:29.839Z,6.83
2022-10-04T16:59:11.120Z,7.90
2022-10-04T17:02:00.226Z,6.30
2022-10-04T17:04:36.233Z,7.00
2022-10-04T17:07:19.173Z,6.07
2022-10-04T17:10:31.120Z,8.17
2022-10-04T17:13:19.492Z,6.77
2022-10-04T17:16:14.909Z,5.67
2022-10-04T17:19:15.390Z,7.87
2022-10-04T17:22:15.967Z,6.80
2022-10-04T17:25:09.851Z,8.47
2022-10-04T17:27:42.421Z,7.57
2022-10-04T17:30:18.524Z,7.67
2022-10-04T17:33:00.170Z,7.90
2022-10-04T17:36:14.802Z,7.97
2022-10-04T17:38:59.484Z,12.87
2022-10-04T17:41:41.158Z,10.90
2022-10-04T17:44:29.386Z,13.73
2022-10-04T17:47:14.907Z,12.57
2022-10-04T17:50:23.399Z,13.87
2022-10-04T17:53:15.189Z,14.07
2022-10-04T17:55:52.920Z,17.00
2022-10-04T17:58:40.575Z,16.63
2022-10-04T18:01:28.490Z,12.50
2022-10-04T18:04:07.259Z,11.00
2022-10-04T18:06:43.240Z,5.93
2022-10-04T18:09:24.799Z,7.10
2022-10-04T18:12:01.170Z,6.03
2022-10-04T18:14:30.896Z,6.03
2022-10-04T18:17:20.130Z,8.17
2022-10-04T18:19:56.541Z,4.93
2022-10-04T18:22:26.673Z,3.93
2022-10-04T18:25:26.044Z,4.80
2022-10-04T18:28:07.014Z,4.67
2022-10-04T18:30:51.218Z,4.37
2022-10-04T18:33:29.226Z,3.83
2022-10-04T18:36:16.494Z,4.10
2022-10-04T18:38:47.365Z,5.73
2022-10-04T18:41:44.606Z,5.73
2022-10-04T18:44:16.729Z,9.67
2022-10-04T18:46:49.809Z,5.80
2022-10-04T18:49:18.091Z,6.63
2022-10-04T18:52:10.849Z,6.70
2022-10-04T18:55:32.251Z,6.97
2022-10-04T18:58:34.414Z,8.30
2022-10-04T19:01:55.305Z,9.90
2022-10-04T19:04:49.863Z,7.50
2022-10-04T19:07:18.002Z,6.20
2022-10-04T19:10:29.852Z,5.53
2022-10-04T19:13:11.045Z,7.17
2022-10-04T19:15:46.361Z,6.23
2022-10-04T19:18:31.388Z,5.50
2022-10-04T19:21:10.032Z,4.83
2022-10-04T19:23:52.422Z,6.43
2022-10-04T19:26:32.475Z,7.23
2022-10-04T19:29:39.604Z,5.53
2022-10-04T19:32:33.057Z,4.80
2022-10-04T19:35:16.189Z,4.80
2022-10-04T19:37:55.249Z,5.47
2022-10-04T19:40:27.937Z,5.63
2022-10-04T19:43:18.747Z,5.20
2022-10-04T19:46:06.410Z,5.20
2022-10-04T19:48:39.514Z,5.87
2022-10-04T19:51:19.549Z,5.70
2022-10-04T19:53:49.522Z,4.43
2022-10-04T19:56:20.147Z,5.40
2022-10-04T19:58:58.347Z,6.27
2022-10-04T20:01:25.973Z,5.77
2022-10-04T20:04:12.394Z,7.00
2022-10-04T20:06:49.212Z,6.60
2022-10-04T20:09:37.011Z,7.53
2022-10-04T20:12:29.538Z,6.93
2022-10-04T20:15:42.797Z,6.97
2022-10-04T20:18:39.868Z,9.70
2022-10-04T20:21:10.579Z,9.90
2022-10-04T20:23:47.881Z,7.27
2022-10-04T20:26:54.471Z,9.83
2022-10-04T20:29:36.908Z,7.77
2022-10-04T20:32:10.412Z,7.37
2022-10-04T20:34:37.018Z,6.23
2022-10-04T20:37:05.961Z,6.80
2022-10-04T20:39:41.960Z,7.73
2022-10-04T20:42:26.390Z,6.80
2022-10-04T20:44:55.118Z,5.47
2022-10-04T20:47:39.430Z,6.43
2022-10-04T20:50:42.100Z,4.93
2022-10-04T20:53:32.938Z,6.53
2022-10-04T20:56:12.185Z,5.83
2022-10-04T20:58:40.365Z,5.67
2022-10-04T21:01:39.017Z,6.17
2022-10-04T21:04:46.465Z,4.77
2022-10-04T21:07:19.002Z,3.97
2022-10-04T21:09:46.374Z,5.50
2022-10-04T21:12:34.780Z,5.47
2022-10-04T21:15:21.933Z,4.50
2022-10-04T21:18:09.469Z,7.57
2022-10-04T21:20:48.294Z,8.40
2022-10-04T21:23:32.783Z,6.90
2022-10-04T21:26:20.239Z,6.73
2022-10-04T21:28:48.298Z,7.73
2022-10-04T21:31:15.122Z,5.90
2022-10-04T21:33:41.772Z,5.77
2022-10-04T21:36:08.705Z,7.73
2022-10-04T21:38:35.605Z,7.20
2022-10-04T21:41:02.732Z,5.17
2022-10-04T21:43:29.638Z,7.37
2022-10-04T21:45:56.615Z,4.80
2022-10-04T21:48:23.928Z,5.53
2022-10-04T21:50:52.076Z,4.63
2022-10-04T21:53:20.031Z,6.80
2022-10-04T21:55:46.701Z,6.47
2022-10-04T21:58:13.549Z,5.27
2022-10-04T22:00:40.455Z,5.73
2022-10-04T22:03:07.274Z,4.00
2022-10-04T22:05:34.073Z,5.73
2022-10-04T22:08:00.739Z,4.80
2022-10-04T22:10:27.733Z,4.60
2022-10-04T22:12:56.847Z,5.97
2022-10-04T22:15:25.585Z,4.83
2022-10-04T22:17:52.197Z,5.93
2022-10-04T22:20:19.342Z,4.30
2022-10-04T22:22:46.390Z,4.33
2022-10-04T22:25:19.147Z,5.03
2022-10-04T22:27:46.445Z,8.60
2022-10-04T22:30:24.292Z,6.30
2022-10-04T22:32:53.651Z,5.00
2022-10-04T22:35:21.042Z,7.30
2022-10-04T22:37:48.718Z,5.13
2022-10-04T22:40:19.958Z,4.47
2022-10-04T22:42:49.033Z,6.77
2022-10-04T22:45:21.658Z,8.37
2022-10-04T22:47:48.633Z,7.87
2022-10-04T22:50:36.481Z,13.00
2022-10-04T22:53:16.801Z,13.73
2022-10-04T22:55:43.725Z,11.07
2022-10-04T22:58:13.359Z,12.23
2022-10-04T23:00:40.955Z,9.50
2022-10-04T23:03:33.041Z,12.60
2022-10-04T23:06:02.246Z,8.33
2022-10-04T23:08:29.505Z,7.57
2022-10-04T23:10:57.821Z,6.77
2022-10-04T23:13:25.954Z,5.80
2022-10-04T23:15:55.841Z,7.13
2022-10-04T23:18:22.729Z,7.23
2022-10-04T23:20:54.460Z,6.53
2022-10-04T23:23:22.207Z,6.30
2022-10-04T23:25:49.418Z,5.53
2022-10-04T23:28:19.006Z,5.47
2022-10-04T23:30:55.643Z,5.70
2022-10-04T23:33:23.662Z,6.17
2022-10-04T23:35:51.330Z,6.30
2022-10-04T23:38:21.162Z,5.70
2022-10-04T23:40:47.996Z,4.80
2022-10-04T23:43:25.090Z,7.40
2022-10-04T23:45:57.246Z,6.67
2022-10-04T23:48:29.074Z,7.57
2022-10-04T23:50:59.621Z,4.93
2022-10-04T23:53:30.250Z,8.60
2022-10-04T23:56:00.045Z,8.07
2022-10-04T23:58:32.309Z,6.77
